»·PEaware :: SWA258 KLAS-KBUR

SWA258 :: KLAS-KBUR

FLIGHT INFORMATION

Flight Status: Arrived
Operator:
Southwest Airlines
More flights by this operator :: More flights under this callsign
Pilot: Brad M. (22842)
Aircraft: BOEING 737-800
(B738)
More flights by this aircraft type
Origin: KLAS McCarran Intl
United States
Destination: KBUR Bob Hope-Burbank
United States
More flights between these airports :: More routes between these airports
Route: +BOACH8 WHIGG KREME JANNY5
File this flight plan on PilotEdge
Remarks:
Altitude:
(Current/Filed)
28,000ft
Speed:
(Current/Filed)
498kts
Departed: 28-Jul-20 03:43 PM
Arrived: 28-Jul-20 04:26 PM
Distance/Time
Traveled:
193nm/0:43
Distance/Time
To Go:
Arrived

Flight Plot

Page will automatically refresh every two minutes.


Map Options




Map Legend


Flown Route
Filed Route
Departure Airport
Arrival Airport
Navaid (VOR, NDB)
Fix

Horizontal Profiles

Position Reports

Time Latitude Longitude Heading Altitude Ground
Speed
28-Jul-20 14:52 36.081011 -115.147713 55 2189ft 0kts
28-Jul-20 14:53 36.081011 -115.147713 55 2189ft 0kts
28-Jul-20 14:54 36.081011 -115.147713 55 2189ft 0kts
28-Jul-20 14:55 36.081011 -115.147713 55 2189ft 0kts
28-Jul-20 14:56 36.081011 -115.147713 55 2189ft 0kts
28-Jul-20 14:57 36.081011 -115.147713 55 2189ft 0kts
28-Jul-20 14:58 36.081011 -115.147713 55 2189ft 0kts
28-Jul-20 14:59 36.081011 -115.147713 55 2189ft 0kts
28-Jul-20 15:00 36.081011 -115.147713 55 2189ft 0kts
28-Jul-20 15:01 36.081011 -115.147713 55 2189ft 0kts
28-Jul-20 15:02 36.081011 -115.147713 55 2189ft 0kts
28-Jul-20 15:03 36.081011 -115.147713 55 2189ft 0kts
28-Jul-20 15:04 36.081011 -115.147713 55 2189ft 0kts
28-Jul-20 15:05 36.081011 -115.147713 55 2189ft 0kts
28-Jul-20 15:06 36.081011 -115.147713 55 2189ft 0kts
28-Jul-20 15:07 36.081011 -115.147713 55 2189ft 0kts
28-Jul-20 15:08 36.081011 -115.147713 55 2189ft 0kts
28-Jul-20 15:09 36.081011 -115.147713 55 2189ft 0kts
28-Jul-20 15:10 36.081011 -115.147713 55 2189ft 0kts
28-Jul-20 15:11 36.081011 -115.147713 55 2189ft 0kts
28-Jul-20 15:12 36.081011 -115.147713 55 2189ft 0kts
28-Jul-20 15:13 36.081011 -115.147713 55 2189ft 0kts
28-Jul-20 15:14 36.081011 -115.147713 55 2189ft 0kts
28-Jul-20 15:15 36.081011 -115.147713 55 2189ft 0kts
28-Jul-20 15:16 36.081011 -115.147713 55 2189ft 0kts
28-Jul-20 15:18 36.081011 -115.147713 55 2189ft 0kts
28-Jul-20 15:19 36.081011 -115.147713 55 2189ft 0kts
28-Jul-20 15:20 36.081011 -115.147713 55 2189ft 0kts
28-Jul-20 15:21 36.081011 -115.147713 55 2189ft 0kts
28-Jul-20 15:22 36.081011 -115.147713 55 2189ft 0kts
28-Jul-20 15:23 36.081011 -115.147713 55 2189ft 0kts
28-Jul-20 15:24 36.081011 -115.147713 55 2189ft 0kts
28-Jul-20 15:25 36.081011 -115.147713 55 2189ft 0kts
28-Jul-20 15:26 36.081011 -115.147713 55 2189ft 0kts
28-Jul-20 15:27 36.081011 -115.147713 55 2189ft 0kts
28-Jul-20 15:28 36.081011 -115.147713 55 2189ft 0kts
28-Jul-20 15:29 36.081011 -115.147713 55 2189ft 0kts
28-Jul-20 15:30 36.081011 -115.147713 55 2189ft 0kts
28-Jul-20 15:31 36.080848 -115.148185 93 2189ft 2kts
28-Jul-20 15:32 36.081135 -115.148553 155 2189ft 0kts
28-Jul-20 15:32 36.081135 -115.148553 155 2189ft 0kts
28-Jul-20 15:34 36.081135 -115.148553 155 2189ft 0kts
28-Jul-20 15:35 36.080935 -115.148440 155 2189ft 3kts
28-Jul-20 15:35 36.080144 -115.147993 155 2189ft 3kts
28-Jul-20 15:37 36.078995 -115.147369 158 2189ft 4kts
28-Jul-20 15:37 36.077875 -115.148492 275 2189ft 9kts
28-Jul-20 15:38 36.078046 -115.151605 270 2189ft 8kts
28-Jul-20 15:40 36.078046 -115.155235 269 2189ft 9kts
28-Jul-20 15:40 36.078042 -115.158293 269 2189ft 12kts
28-Jul-20 15:41 36.077494 -115.161298 181 2189ft 0kts
28-Jul-20 15:42 36.076387 -115.158298 89 2189ft 62kts
28-Jul-20 15:43 36.076743 -115.109330 89 3693ft 170kts
28-Jul-20 15:44 36.075979 -115.038503 95 5287ft 245kts
28-Jul-20 15:45 36.064870 -114.947389 128 7549ft 288kts
28-Jul-20 15:46 35.991132 -114.915634 162 10604ft 295kts
28-Jul-20 15:47 35.910846 -114.940918 231 12147ft 361kts
28-Jul-20 15:48 35.845134 -115.043403 221 13715ft 399kts
28-Jul-20 15:49 35.772481 -115.149410 232 15866ft 411kts
28-Jul-20 15:50 35.700060 -115.261134 232 17748ft 422kts
28-Jul-20 15:51 35.621903 -115.371497 228 19436ft 433kts
28-Jul-20 15:52 35.539755 -115.481356 229 20953ft 441kts
28-Jul-20 15:53 35.453242 -115.590292 225 22353ft 449kts
28-Jul-20 15:54 35.362284 -115.696733 225 23557ft 456kts
28-Jul-20 15:55 35.270158 -115.805290 225 24672ft 461kts
28-Jul-20 15:56 35.178445 -115.913959 225 25888ft 460kts
28-Jul-20 15:57 35.085544 -116.023562 225 25909ft 462kts
28-Jul-20 15:58 34.992819 -116.131915 225 25909ft 463kts
28-Jul-20 15:59 34.908962 -116.249244 240 23998ft 458kts
28-Jul-20 16:00 34.853137 -116.388347 245 23181ft 458kts
28-Jul-20 16:01 34.799471 -116.528691 249 22956ft 456kts
28-Jul-20 16:02 34.775522 -116.679188 263 22111ft 451kts
28-Jul-20 16:03 34.760977 -116.829430 263 21062ft 445kts
28-Jul-20 16:04 34.746081 -116.976741 263 19726ft 416kts
28-Jul-20 16:05 34.732515 -117.112410 263 16906ft 398kts
28-Jul-20 16:06 34.719115 -117.243924 262 14644ft 386kts
28-Jul-20 16:07 34.705618 -117.371758 261 14088ft 384kts
28-Jul-20 16:08 34.692034 -117.500668 261 14033ft 385kts
28-Jul-20 16:09 34.678186 -117.629826 261 14008ft 385kts
28-Jul-20 16:10 34.664564 -117.759023 261 13994ft 385kts
28-Jul-20 16:11 34.650769 -117.888332 261 13824ft 382kts
28-Jul-20 16:12 34.636789 -118.015018 261 11662ft 375kts
28-Jul-20 16:13 34.616011 -118.138081 253 9360ft 370kts
28-Jul-20 16:14 34.590390 -118.248693 254 8118ft 296kts
28-Jul-20 16:15 34.568880 -118.344429 254 8034ft 296kts
28-Jul-20 16:16 34.540717 -118.437128 226 8013ft 295kts
28-Jul-20 16:17 34.473747 -118.491722 211 7244ft 282kts
28-Jul-20 16:18 34.411304 -118.540461 212 6674ft 255kts
28-Jul-20 16:19 34.348676 -118.567489 150 5905ft 244kts
28-Jul-20 16:20 34.318045 -118.501596 113 4794ft 215kts
28-Jul-20 16:21 34.296962 -118.440004 111 3997ft 190kts
28-Jul-20 16:22 34.269358 -118.389837 137 2586ft 166kts
28-Jul-20 16:23 34.234047 -118.366629 165 1396ft 132kts
28-Jul-20 16:24 34.202216 -118.357665 167 729ft 75kts
28-Jul-20 16:25 34.198804 -118.354847 90 729ft 9kts
28-Jul-20 16:26 34.198573 -118.352236 156 729ft 4kts
28-Jul-20 16:27 34.196954 -118.352828 182 729ft 2kts
28-Jul-20 16:28 34.196815 -118.352834 181 729ft 0kts
28-Jul-20 16:29 34.196815 -118.352834 181 729ft 0kts
28-Jul-20 16:30 34.196815 -118.352834 181 729ft 0kts
28-Jul-20 16:31 34.196815 -118.352834 181 729ft 0kts
28-Jul-20 16:32 34.196815 -118.352834 181 729ft 0kts

Navigation Log

Ident Type
Flight plan parsing failed, navigation log unavailable